ADDS METAR Data INFO
IDs: Format: Raw Decoded Include TAF

Data at: 0713 UTC 24 Jun 2018

KCPK 240655Z AUTO 20004KT 10SM CLR 23/22 A2987 RMK AO2 T02300224
KCPK 240635Z AUTO 20003KT 7SM CLR 23/22 A2987 RMK AO2 T02270220
KCPK 240615Z AUTO 00000KT 7SM CLR 23/22 A2987 RMK AO2 T02270221
KCPK 240555Z AUTO 00000KT 10SM CLR 22/22 A2987 RMK AO2 60001 T02230217 10248 20222
KCPK 240535Z AUTO 00000KT 10SM CLR 22/22 A2987 RMK AO2 T02220216
KCPK 240515Z AUTO 00000KT 10SM CLR 23/22 A2987 RMK AO2 T02250218
KCPK 240455Z AUTO 00000KT 10SM CLR 23/22 A2987 RMK AO2 T02250218 403230215
KCPK 240435Z AUTO 00000KT 10SM CLR 22/22 A2987 RMK AO2 T02220216
KCPK 240415Z AUTO 18003KT 10SM CLR 23/22 A2987 RMK AO2 T02250217
KCPK 240355Z AUTO 20003KT 10SM CLR 23/22 A2987 RMK AO2 T02250219
KCPK 240335Z AUTO 18004KT 10SM CLR 23/22 A2987 RMK AO2 T02270220
KCPK 240315Z AUTO 17003KT 10SM CLR 23/22 A2987 RMK AO2 T02270220
KCPK 240255Z AUTO 20003KT 7SM CLR 23/22 A2986 RMK AO2 60001 T02280221
KCPK 240235Z AUTO 00000KT 7SM CLR 23/22 A2987 RMK AO2 T02300222
KCPK 240215Z AUTO 20003KT 7SM CLR 23/22 A2986 RMK AO2 T02300222
KCPK 240155Z AUTO 19005KT 10SM CLR 23/22 A2986 RMK AO2 T02340224
KCPK 240135Z AUTO 18003KT 7SM CLR 23/22 A2986 RMK AO2 LTG DSNT E T02320223
KCPK 240115Z AUTO 19005KT 7SM CLR 24/22 A2985 RMK AO2 LTG DSNT E AND SE T02350223
KCPK 240055Z AUTO 19003KT 7SM CLR 23/22 A2984 RMK AO2 LTG DSNT E THRU S P0001 T02330223
KCPK 240035Z AUTO 17004KT 7SM CLR 24/23 A2984 RMK AO2 LTG DSNT E THRU S P0001 T02350228
KCPK 240015Z AUTO 00000KT 7SM SCT004 24/23 A2981 RMK AO2 LTG DSNT E THRU S P0001 T02370228
KCPK 232355Z AUTO 15005KT 10SM -RA SCT110 25/24 A2982 RMK AO2 LTG DSNT E AND S P0004 60008 T02490237 10323 20249
KCPK 232335Z AUTO 13005KT 7SM -RA SCT023 SCT050 OVC110 26/25 A2981 RMK AO2 LTG DSNT E THRU S P0004 T02580247
KCPK 232315Z AUTO 27004KT 3SM +RA SCT025 BKN032 OVC080 26/25 A2982 RMK AO2 LTG DSNT S P0004 T02570246
KCPK 232255Z AUTO 08004KT 7SM SCT021 BKN030 OVC035 26/25 A2982 RMK AO2 LTG DSNT E THRU SW P0002 T02590245
KCPK 232235Z AUTO 27003KT 5SM -RA SCT019 BKN025 OVC047 27/25 A2981 RMK AO2 LTG DSNT S P0002 T02660245
KCPK 232215Z AUTO 18005KT 5SM -RA SCT025 BKN060 OVC075 28/25 A2980 RMK AO2 LTG DSNT W P0001 T02750246
KCPK 232155Z AUTO 17005KT 7SM SCT060 BKN075 29/24 A2980 RMK AO2 LTG DSNT SE T02850243
KCPK 232135Z AUTO 19004KT 7SM CLR 29/25 A2979 RMK AO2 LTG DSNT NE AND SE T02900245
KCPK 232115Z AUTO 00000KT 10SM CLR 29/24 A2979 RMK AO2 LTG DSNT NE AND SE T02880243
KCPK 232055Z AUTO 21005KT 10SM -RA CLR 28/24 A2979 RMK AO2 LTG DSNT S P0001 60002 T02780241
KCPK 232035Z AUTO 20008KT 10SM -RA SCT029 SCT041 SCT047 27/24 A2981 RMK AO2 LTG DSNT E THRU S P0001 T02740240
KCPK 232015Z AUTO 26009KT 7SM +RA SCT045 BKN060 OVC100 27/24 A2981 RMK AO2 LTG DSNT ALQS P0001 T02670235
KCPK 231955Z AUTO 20015G19KT 10SM -RA SCT050 SCT090 BKN110 29/23 A2979 RMK AO2 LTG DSNT S AND W T02930229
KCPK 231935Z AUTO 21008KT 7SM SCT048 SCT060 SCT120 31/23 A2979 RMK AO2 LTG DSNT W T03050232
KCPK 231915Z AUTO 24004KT 7SM SCT019 SCT036 SCT050 31/24 A2979 RMK AO2 LTG DSNT S AND SW T03110243
KCPK 231855Z AUTO 18006G17KT 4SM -RA SCT019 SCT036 BKN085 29/25 A2980 RMK AO2 P0001 T02860245
KCPK 231835Z AUTO 20010G14KT 7SM BKN049 BKN065 BKN095 31/22 A2980 RMK AO2 T03140222
KCPK 231815Z AUTO 20007G15KT 10SM SCT049 SCT060 31/23 A2982 RMK AO2 T03140226
KCPK 231755Z AUTO 21008G15KT 7SM SCT049 32/22 A2982 RMK AO2 T03190224 10321 20242
KCPK 231735Z AUTO 20008G16KT 7SM CLR 32/22 A2983 RMK AO2 T03160217
KCPK 231715Z AUTO 23008G17KT 7SM CLR 32/22 A2983 RMK AO2 T03160218
KCPK 231655Z AUTO 21008KT 10SM CLR 32/23 A2984 RMK AO2 T03180229
KCPK 231635Z AUTO 24007G15KT 210V270 10SM CLR 31/22 A2984 RMK AO2 T03120222
KCPK 231615Z AUTO 24007KT 10SM CLR 31/23 A2984 RMK AO2 T03100226
KCPK 231555Z AUTO 23006G14KT 7SM CLR 31/23 A2984 RMK AO2 T03060226
KCPK 231535Z AUTO 23006KT 7SM CLR 30/23 A2985 RMK AO2 T03040229
KCPK 231515Z AUTO 20010KT 7SM CLR 30/23 A2985 RMK AO2 T03010230
KCPK 231455Z AUTO 22007KT 7SM CLR 30/24 A2985 RMK AO2 T02980239
KCPK 231435Z AUTO 23006KT 7SM CLR 29/24 A2985 RMK AO2 T02940236
KCPK 231415Z AUTO 22006KT 10SM CLR 29/24 A2985 RMK AO2 T02860241
KCPK 231355Z AUTO 19009KT 10SM CLR 28/24 A2985 RMK AO2 T02790243
KCPK 231335Z AUTO 21009KT 10SM CLR 27/24 A2985 RMK AO2 T02690244
KCPK 231315Z AUTO 21006KT 10SM CLR 26/24 A2985 RMK AO2 T02620241
KCPK 231255Z AUTO 22007KT 10SM CLR 26/24 A2985 RMK AO2 T02600241
KCPK 231235Z AUTO 20007KT 10SM CLR 26/24 A2984 RMK AO2 T02590243
KCPK 231215Z AUTO 19005KT 10SM CLR 25/23 A2984 RMK AO2 T02450232
KCPK 231155Z AUTO 19006KT 10SM CLR 24/23 A2984 RMK AO2 70133 T02420229 10242 20216
KCPK 231135Z AUTO 19005KT 10SM CLR 24/23 A2984 RMK AO2 T02390225
KCPK 231115Z AUTO 20003KT 10SM CLR 23/22 A2984 RMK AO2 T02300218
KCPK 231055Z AUTO 18004KT 10SM CLR 23/22 A2983 RMK AO2 T02250215
KCPK 231035Z AUTO 17005KT 10SM CLR 23/22 A2983 RMK AO2 T02260215
KCPK 231015Z AUTO 20004KT 10SM CLR 22/21 A2983 RMK AO2 T02200212
KCPK 230955Z AUTO 21003KT 10SM CLR 22/21 A2982 RMK AO2 T02200211
KCPK 230935Z AUTO 18003KT 10SM CLR 22/21 A2981 RMK AO2 T02200211
KCPK 230915Z AUTO 18004KT 10SM CLR 22/21 A2981 RMK AO2 T02190211
KCPK 230855Z AUTO 18004KT 10SM CLR 22/21 A2981 RMK AO2 T02190210
KCPK 230835Z AUTO 19004KT 10SM CLR 22/21 A2981 RMK AO2 T02180210
KCPK 230815Z AUTO 18004KT 10SM CLR 22/21 A2982 RMK AO2 T02170210
KCPK 230755Z AUTO 19004KT 10SM CLR 22/21 A2981 RMK AO2 LTG DSNT S T02170210
KCPK 230735Z AUTO 20004KT 10SM SCT120 22/21 A2982 RMK AO2 T02180210
KCPK 230715Z AUTO 00000KT 10SM OVC110 22/21 A2983 RMK AO2 T02180210
KCPK 230655Z AUTO 17004KT 10SM OVC110 22/21 A2984 RMK AO2 T02200211
KCPK 230635Z AUTO 00000KT 10SM -RA SCT050 SCT080 OVC110 22/21 A2984 RMK AO2 LTG DSNT E T02200211
KCPK 230615Z AUTO 14004KT 10SM -RA SCT040 SCT080 OVC100 22/21 A2984 RMK AO2 LTG DSNT SE AND SW T02210210
KCPK 230555Z AUTO 19006KT 5SM VCTSRA SCT039 BKN055 OVC120 22/21 A2985 RMK AO2 LTG DSNT ALQS P0031 60128 T02160210 10271 20210
KCPK 230535Z AUTO 00000KT 10SM SCT033 BKN060 OVC070 22/21 A2986 RMK AO2 LTG DSNT W THRU E P0022 T02170210
KCPK 230515Z AUTO 01004KT 2 1/2SM +TSRA SCT013 BKN035 OVC080 22/21 A2986 RMK AO2 LTG DSNT NE E AND W P0019 T02150210
KCPK 230455Z AUTO 25004KT 3SM +TSRA SCT006 BKN029 OVC060 22/21 A2988 RMK AO2 LTG DSNT ALQS P0095 T02150206 403210210
KCPK 230435Z AUTO 30008G22KT 1SM +TSRA BKN008 OVC014 21/20 A2988 RMK AO2 LTG DSNT ALQS P0073 T02100202
KCPK 230415Z AUTO 30023G28KT 7SM VCTS SCT015 SCT026 BKN085 24/21 A2989 RMK AO2 LTG DSNT ALQS T02360211
KCPK 230355Z AUTO 08003KT 10SM TS CLR 23/21 A2982 RMK AO2 LTG DSNT ALQS T02300210
KCPK 230335Z AUTO 04004KT 7SM CLR 23/21 A2982 RMK AO2 LTG DSNT W AND NW T02340210
KCPK 230315Z AUTO 05006KT 10SM VCTS CLR 24/21 A2980 RMK AO2 LTG DSNT NE AND NW T02350210
KCPK 230255Z AUTO 03006KT 10SM CLR 24/21 A2982 RMK AO2 LTG DSNT W T02380210
KCPK 230235Z AUTO 36003KT 10SM CLR 24/21 A2981 RMK AO2 T02380212
KCPK 230215Z AUTO 06004KT 10SM CLR 24/21 A2982 RMK AO2 T02380210
KCPK 230155Z AUTO 04006KT 10SM SCT025 SCT029 SCT048 24/21 A2982 RMK AO2 LTG DSNT NE T02410207
KCPK 230135Z AUTO 35007KT 10SM SCT023 SCT048 SCT085 25/21 A2982 RMK AO2 T02520211
KCPK 230115Z AUTO 31012G15KT 7SM SCT050 SCT085 26/23 A2981 RMK AO2 LTG DSNT N AND NW T02630234
KCPK 230055Z AUTO 12003KT 10SM CLR 26/24 A2979 RMK AO2 LTG DSNT N AND NW T02640240
KCPK 230035Z AUTO 00000KT 10SM VCTS CLR 27/24 A2979 RMK AO2 LTG DSNT N AND NW T02670238
KCPK 230015Z AUTO 15005KT 5SM HZ CLR 27/24 A2977 RMK AO2 LTG DSNT N AND NW T02710244
KCPK 222355Z AUTO 10006KT 7SM CLR 27/26 A2977 RMK AO2 LTG DSNT NW 60004 T02710256 10321 20271
KCPK 222335Z AUTO 06005KT 7SM SCT050 SCT070 28/26 A2978 RMK AO2 T02800257
KCPK 222315Z AUTO 05005KT 10SM SCT044 BKN050 BKN070 29/26 A2977 RMK AO2 T02880257
KCPK 222255Z AUTO 07004KT 10SM BKN042 BKN060 BKN070 29/25 A2977 RMK AO2 LTG DSNT E T02910254
KCPK 222235Z AUTO 04004KT 10SM SCT042 SCT048 SCT070 29/25 A2978 RMK AO2 LTG DSNT E T02940250
KCPK 222215Z AUTO 00000KT 7SM SCT040 BKN048 OVC095 30/24 A2977 RMK AO2 LTG DSNT E T03020240
KCPK 222155Z AUTO 13004KT 10SM BKN040 BKN048 BKN050 31/23 A2976 RMK AO2 LTG DSNT E T03110233
KCPK 222135Z AUTO 00000KT 7SM CLR 32/22 A2976 RMK AO2 LTG DSNT E AND S T03180223
KCPK 222115Z AUTO 25003KT 5SM HZ CLR 32/23 A2976 RMK AO2 LTG DSNT E T03200226
KCPK 222055Z AUTO 21005KT 10SM CLR 31/23 A2977 RMK AO2 60004 T03110226
KCPK 222035Z AUTO 23004KT 7SM SCT040 SCT049 SCT060 32/23 A2978 RMK AO2 LTG DSNT NE AND E T03150234
KCPK 222015Z AUTO 22005KT 10SM SCT042 SCT050 SCT060 31/23 A2978 RMK AO2 T03140229
KCPK 221955Z AUTO 21003KT 7SM SCT047 31/23 A2978 RMK AO2 T03140230
KCPK 221935Z AUTO 20008KT 10SM SCT035 SCT045 31/23 A2979 RMK AO2 T03120233
KCPK 221915Z AUTO 19003KT 7SM SCT032 SCT037 BKN045 30/24 A2979 RMK AO2 LTG DSNT E T03030237